Academia, Pennsylvania
Current Conditions -  °F | °C
As of 3:15 AM on Saturday 25 Oct 2014 (Local Time) from KUNV Reporting Station
Broken Clouds Broken Clouds  
Wind Chill: 44°   Ceiling: 4800
Heat Index: 48°   Visibility: 10mi
Dew Point: 38°   Wind: 7mph
Humidity: 69%   Direction: 230°SW
Pressure: 29.95"   Gusts: NA
Location:  40.4991°N, 77.4687°W
Report Text: KUNV 250715Z AUTO 23006KT 10SM BKN048 BKN075 BKN085 09/03 A2995 RMK AO2 T00870034
Loading
Personal Weather Stations






























Interactive Weather Map
Tropical Storm Tracking
New forecast layout! Learn more

10-Day Weather Forecast

Advertisements
Track Severe Weather on mobile